createdAt,value
2022-08-03T00:02:23.930Z,40.35
2022-08-03T00:07:29.136Z,40.47
2022-08-03T00:12:32.986Z,41.01
2022-08-03T00:17:53.493Z,41.16
2022-08-03T00:22:56.305Z,40.82
2022-08-03T00:27:58.831Z,41.04
2022-08-03T00:33:02.210Z,41.09
2022-08-03T00:38:08.844Z,40.67
2022-08-03T00:43:12.062Z,40.59
2022-08-03T00:48:29.404Z,40.54
2022-08-03T00:53:37.304Z,40.77
2022-08-03T00:58:39.871Z,40.51
2022-08-03T01:03:42.635Z,40.83
2022-08-03T01:09:12.988Z,41.51
2022-08-03T01:14:52.622Z,41.18
2022-08-03T01:20:03.203Z,41.76
2022-08-03T01:25:33.006Z,41.57
2022-08-03T01:30:38.495Z,41.11
2022-08-03T01:36:03.912Z,41.47
2022-08-03T01:41:11.840Z,41.12
2022-08-03T01:46:16.559Z,41.45
2022-08-03T01:51:20.725Z,41.48
2022-08-03T01:56:25.520Z,41.91
2022-08-03T02:02:28.487Z,42.10
2022-08-03T02:07:01.256Z,41.95
2022-08-03T02:12:09.608Z,41.87
2022-08-03T02:17:14.311Z,41.32
2022-08-03T02:22:17.218Z,41.65
2022-08-03T02:27:24.960Z,41.81
2022-08-03T02:32:35.094Z,42.28
2022-08-03T02:37:49.796Z,42.38
2022-08-03T02:42:56.891Z,42.57
2022-08-03T02:48:05.607Z,41.97
2022-08-03T02:53:08.736Z,42.21
2022-08-03T02:58:13.918Z,41.58
2022-08-03T03:03:16.498Z,41.85
2022-08-03T03:08:26.881Z,41.73
2022-08-03T03:13:31.946Z,41.80
2022-08-03T03:18:35.764Z,41.80
2022-08-03T03:23:41.267Z,41.21
2022-08-03T03:28:44.846Z,41.15
2022-08-03T03:33:48.478Z,40.93
2022-08-03T03:38:51.127Z,40.61
2022-08-03T03:43:59.578Z,40.85
2022-08-03T03:49:02.370Z,41.07
2022-08-03T03:54:08.741Z,41.58
2022-08-03T03:59:11.209Z,41.05
2022-08-03T04:04:32.289Z,41.11
2022-08-03T04:09:55.649Z,41.44
2022-08-03T04:15:03.584Z,41.44
2022-08-03T04:20:07.408Z,41.40
2022-08-03T04:25:14.733Z,41.44
2022-08-03T04:30:17.392Z,41.70
2022-08-03T04:35:20.453Z,42.53
2022-08-03T04:40:36.380Z,43.22
2022-08-03T04:45:40.100Z,43.76
2022-08-03T04:50:45.737Z,44.08
2022-08-03T04:55:48.179Z,44.02
2022-08-03T05:00:52.616Z,43.67
2022-08-03T05:06:07.973Z,43.42
2022-08-03T05:11:12.582Z,43.16
2022-08-03T05:16:15.638Z,42.80
2022-08-03T05:21:18.035Z,42.20
2022-08-03T05:26:20.776Z,42.05
2022-08-03T05:31:23.142Z,41.86
2022-08-03T05:36:25.495Z,41.21
2022-08-03T05:41:36.979Z,41.43
2022-08-03T05:46:39.875Z,41.48
2022-08-03T05:51:42.221Z,41.04
2022-08-03T05:56:44.623Z,40.82
2022-08-03T06:01:47.270Z,40.69
2022-08-03T06:06:51.376Z,40.92
2022-08-03T06:11:53.734Z,41.72
2022-08-03T06:16:56.205Z,42.08
2022-08-03T06:21:58.908Z,42.49
2022-08-03T06:27:04.860Z,43.21
2022-08-03T06:32:07.387Z,43.43
2022-08-03T06:37:09.861Z,43.54
2022-08-03T06:42:12.281Z,43.59
2022-08-03T06:47:14.643Z,43.49
2022-08-03T06:52:37.267Z,43.30
2022-08-03T06:57:39.411Z,43.07
2022-08-03T07:02:42.173Z,42.38
2022-08-03T07:07:45.093Z,41.56
2022-08-03T07:12:56.149Z,40.79
2022-08-03T07:17:59.534Z,40.08
2022-08-03T07:23:03.629Z,39.28
2022-08-03T07:28:06.013Z,38.44
2022-08-03T07:33:08.419Z,38.47
2022-08-03T07:38:10.795Z,37.14
2022-08-03T07:43:13.287Z,36.66
2022-08-03T07:48:15.954Z,36.40
2022-08-03T07:53:18.397Z,36.33
2022-08-03T07:58:24.190Z,36.27
2022-08-03T08:03:27.368Z,35.57
2022-08-03T08:08:29.852Z,35.71
2022-08-03T08:13:32.647Z,35.39
2022-08-03T08:18:35.146Z,34.35
2022-08-03T08:23:43.664Z,34.56
2022-08-03T08:28:47.496Z,34.91
2022-08-03T08:34:05.292Z,34.61
2022-08-03T08:39:08.351Z,34.30
2022-08-03T08:44:10.811Z,33.92
2022-08-03T08:49:18.070Z,34.17
2022-08-03T08:54:23.420Z,34.47
2022-08-03T08:59:47.777Z,34.16
2022-08-03T09:04:51.215Z,34.34
2022-08-03T09:10:05.957Z,34.08
2022-08-03T09:15:31.913Z,34.26
2022-08-03T09:20:37.408Z,33.89
2022-08-03T09:25:44.781Z,34.13
2022-08-03T09:31:00.890Z,33.90
2022-08-03T09:36:03.438Z,33.51
2022-08-03T09:41:19.543Z,33.57
2022-08-03T09:46:21.901Z,33.02
2022-08-03T09:51:32.810Z,32.91
2022-08-03T09:56:48.782Z,32.42
2022-08-03T10:01:51.449Z,32.47
2022-08-03T10:07:11.226Z,32.28
2022-08-03T10:12:14.608Z,31.81
2022-08-03T10:17:17.267Z,32.21
2022-08-03T10:22:24.254Z,32.13
2022-08-03T10:27:32.997Z,31.63
2022-08-03T10:32:42.420Z,31.42
2022-08-03T10:37:57.326Z,31.14
2022-08-03T10:43:10.600Z,30.86
2022-08-03T10:48:13.800Z,30.27
2022-08-03T10:53:18.631Z,29.99
2022-08-03T10:58:53.226Z,30.17
2022-08-03T11:03:59.632Z,29.46
2022-08-03T11:09:12.301Z,29.28
2022-08-03T11:14:22.302Z,28.75
2022-08-03T11:19:57.466Z,28.18
2022-08-03T11:25:00.929Z,28.62
2022-08-03T11:30:06.361Z,28.72
2022-08-03T11:35:14.070Z,28.31
2022-08-03T11:40:35.381Z,28.22
2022-08-03T11:45:38.716Z,28.00
2022-08-03T11:50:41.580Z,27.81
2022-08-03T11:55:47.563Z,28.03
2022-08-03T12:00:51.659Z,28.13
2022-08-03T12:06:00.884Z,28.05
2022-08-03T12:11:08.140Z,27.48
2022-08-03T12:16:10.889Z,27.35
2022-08-03T12:21:13.592Z,27.13
2022-08-03T12:26:16.081Z,27.31
2022-08-03T12:31:18.596Z,27.02
2022-08-03T12:36:22.361Z,27.29
2022-08-03T12:41:43.183Z,26.89
2022-08-03T12:46:48.053Z,26.79
2022-08-03T12:51:50.613Z,26.65
2022-08-03T12:57:03.618Z,26.05
2022-08-03T13:02:09.618Z,26.31
2022-08-03T13:07:18.055Z,25.86
2022-08-03T13:12:28.112Z,25.33
2022-08-03T13:17:30.486Z,25.00
2022-08-03T13:22:35.784Z,24.21
2022-08-03T13:28:04.197Z,23.62
2022-08-03T13:33:01.027Z,23.91
2022-08-03T13:38:03.567Z,23.89
2022-08-03T13:43:06.031Z,24.71
2022-08-03T13:48:08.601Z,23.94
2022-08-03T13:53:10.990Z,23.44
2022-08-03T13:58:14.138Z,23.39
2022-08-03T14:03:16.879Z,23.31
2022-08-03T14:08:19.253Z,22.70
2022-08-03T14:13:21.752Z,23.18
2022-08-03T14:18:29.207Z,23.45
2022-08-03T14:23:38.359Z,23.32
2022-08-03T14:28:41.781Z,23.93
2022-08-03T14:33:44.220Z,24.25
2022-08-03T14:38:46.864Z,23.64
2022-08-03T14:44:01.271Z,23.00
2022-08-03T14:50:30.779Z,22.14
2022-08-03T14:54:31.471Z,22.50
2022-08-03T14:59:55.875Z,21.45
2022-08-03T15:04:56.601Z,21.09
2022-08-03T15:10:00.174Z,20.75
2022-08-03T15:15:05.140Z,20.71
2022-08-03T15:20:28.828Z,20.32
2022-08-03T15:26:30.330Z,20.43
2022-08-03T15:31:02.951Z,20.12
2022-08-03T15:36:05.780Z,19.57
2022-08-03T15:41:14.482Z,19.06
2022-08-03T15:46:29.218Z,18.83
2022-08-03T15:51:32.250Z,18.78
2022-08-03T15:56:34.626Z,18.56
2022-08-03T16:01:37.118Z,18.67
2022-08-03T16:06:39.524Z,19.14
2022-08-03T16:11:44.583Z,19.47
2022-08-03T16:16:46.980Z,19.47
2022-08-03T16:21:50.181Z,20.00
2022-08-03T16:26:52.865Z,20.37
2022-08-03T16:31:55.262Z,21.91
2022-08-03T16:37:04.838Z,22.65
2022-08-03T16:42:19.191Z,23.71
2022-08-03T16:47:23.387Z,24.52
2022-08-03T16:52:27.391Z,24.77
2022-08-03T16:57:59.384Z,25.46
2022-08-03T17:02:55.331Z,25.74
2022-08-03T17:08:10.561Z,26.35
2022-08-03T17:13:22.492Z,26.97
2022-08-03T17:18:27.255Z,27.73
2022-08-03T17:29:13.037Z,27.91
2022-08-03T17:34:16.048Z,27.94
2022-08-03T17:39:27.029Z,28.10
2022-08-03T17:44:46.312Z,28.69
2022-08-03T17:49:50.186Z,28.84
2022-08-03T17:55:54.957Z,29.12
2022-08-03T18:00:43.403Z,29.12
2022-08-03T18:11:23.961Z,29.43
2022-08-03T18:16:40.072Z,29.81
2022-08-03T18:22:03.548Z,30.19
2022-08-03T18:27:08.929Z,30.52
2022-08-03T18:32:16.999Z,30.62
2022-08-03T18:37:25.208Z,31.04
2022-08-03T18:42:28.377Z,31.36
2022-08-03T18:47:50.727Z,31.64
2022-08-03T18:54:03.394Z,32.10
2022-08-03T18:59:16.938Z,31.92
2022-08-03T19:04:36.663Z,32.40
2022-08-03T19:09:52.738Z,32.41
2022-08-03T19:15:00.930Z,32.51
2022-08-03T19:20:09.596Z,33.01
2022-08-03T19:25:12.394Z,33.39
2022-08-03T19:30:39.028Z,33.40
2022-08-03T19:35:51.293Z,33.42
2022-08-03T19:41:02.389Z,34.07
2022-08-03T19:46:14.197Z,34.15
2022-08-03T19:51:17.618Z,34.65
2022-08-03T19:56:30.198Z,35.54
2022-08-03T20:01:32.606Z,35.81
2022-08-03T20:06:57.582Z,36.40
2022-08-03T20:12:00.628Z,36.68
2022-08-03T20:17:03.220Z,36.73
2022-08-03T20:22:14.487Z,36.88
2022-08-03T20:27:21.164Z,37.55
2022-08-03T20:32:36.259Z,37.36
2022-08-03T20:37:41.426Z,37.94
2022-08-03T20:42:44.228Z,37.67
2022-08-03T20:47:50.909Z,38.03
2022-08-03T20:52:53.969Z,37.92
2022-08-03T20:57:58.210Z,37.73
2022-08-03T21:03:02.653Z,37.74
2022-08-03T21:08:08.051Z,37.97
2022-08-03T21:13:04.092Z,29.28
2022-08-03T21:13:25.213Z,38.10
2022-08-03T21:18:28.317Z,38.54
2022-08-03T21:23:48.191Z,38.23
2022-08-03T21:28:55.877Z,38.06
2022-08-03T21:34:03.790Z,38.42
2022-08-03T21:39:09.028Z,38.45
2022-08-03T21:44:11.808Z,37.96
2022-08-03T21:50:04.203Z,38.10
2022-08-03T21:54:41.599Z,37.93
2022-08-03T21:59:51.921Z,38.04
2022-08-03T22:04:56.369Z,38.59
2022-08-03T22:10:02.349Z,38.93
2022-08-03T22:15:10.432Z,38.95
2022-08-03T22:20:17.269Z,39.03
2022-08-03T22:25:24.190Z,39.25
2022-08-03T22:30:28.696Z,39.32
2022-08-03T22:35:32.795Z,39.57
2022-08-03T22:40:51.460Z,39.10
2022-08-03T22:46:09.954Z,39.92
2022-08-03T22:51:16.309Z,39.94
2022-08-03T22:56:19.832Z,40.07
2022-08-03T23:01:26.805Z,40.48
2022-08-03T23:06:35.013Z,40.51
2022-08-03T23:11:45.598Z,40.51
2022-08-03T23:16:48.573Z,40.47
2022-08-03T23:21:53.835Z,40.58
2022-08-03T23:27:05.385Z,40.48
2022-08-03T23:32:11.994Z,40.34
2022-08-03T23:37:16.120Z,40.35
2022-08-03T23:42:22.360Z,40.49
2022-08-03T23:47:47.092Z,40.70
2022-08-03T23:53:08.860Z,40.54
2022-08-03T23:58:41.773Z,41.02
